createdAt,value
2017-08-04T00:01:47.773Z,17.30
2017-08-04T00:04:15.326Z,17.30
2017-08-04T00:06:42.853Z,17.20
2017-08-04T00:09:11.187Z,17.10
2017-08-04T00:11:38.721Z,17.10
2017-08-04T00:14:06.239Z,17.10
2017-08-04T00:16:34.559Z,17.10
2017-08-04T00:19:02.082Z,17.00
2017-08-04T00:21:30.399Z,17.00
2017-08-04T00:23:57.948Z,17.00
2017-08-04T00:26:25.470Z,17.00
2017-08-04T00:28:53.779Z,16.90
2017-08-04T00:31:21.336Z,16.90
2017-08-04T00:33:48.883Z,16.90
2017-08-04T00:36:16.436Z,16.90
2017-08-04T00:38:44.013Z,16.90
2017-08-04T00:41:11.567Z,16.90
2017-08-04T00:43:39.092Z,16.90
2017-08-04T00:46:06.661Z,16.90
2017-08-04T00:48:34.976Z,16.80
2017-08-04T00:51:02.510Z,16.80
2017-08-04T00:53:30.072Z,16.80
2017-08-04T00:55:57.594Z,16.80
2017-08-04T00:58:25.143Z,16.80
2017-08-04T01:00:52.701Z,16.80
2017-08-04T01:03:20.247Z,16.80
2017-08-04T01:05:47.785Z,16.80
2017-08-04T01:08:15.330Z,16.80
2017-08-04T01:10:42.875Z,16.80
2017-08-04T01:13:11.158Z,16.90
2017-08-04T01:15:38.727Z,16.90
2017-08-04T01:18:06.269Z,16.90
2017-08-04T01:20:34.683Z,16.80
2017-08-04T01:23:02.264Z,16.80
2017-08-04T01:25:29.801Z,16.80
2017-08-04T01:27:57.322Z,16.80
2017-08-04T01:30:25.656Z,16.70
2017-08-04T01:32:53.201Z,16.70
2017-08-04T01:35:20.744Z,16.80
2017-08-04T01:37:48.301Z,16.80
2017-08-04T01:40:15.841Z,16.80
2017-08-04T01:42:43.366Z,16.80
2017-08-04T01:45:10.943Z,16.80
2017-08-04T01:47:39.266Z,16.80
2017-08-04T01:50:06.815Z,16.80
2017-08-04T01:52:34.377Z,16.90
2017-08-04T01:55:01.909Z,16.90
2017-08-04T01:57:30.226Z,17.00
2017-08-04T01:59:57.887Z,17.00
2017-08-04T02:02:25.403Z,17.10
2017-08-04T02:04:53.682Z,17.10
2017-08-04T02:07:22.196Z,17.20
2017-08-04T02:09:49.725Z,17.20
2017-08-04T02:12:17.260Z,17.20
2017-08-04T02:14:44.816Z,17.30
2017-08-04T02:17:12.342Z,17.30
2017-08-04T02:19:39.892Z,17.20
2017-08-04T02:22:07.442Z,17.20
2017-08-04T02:24:35.110Z,17.20
2017-08-04T02:27:02.645Z,17.20
2017-08-04T02:29:30.212Z,17.10
2017-08-04T02:31:57.741Z,17.10
2017-08-04T02:34:26.052Z,17.10
2017-08-04T02:36:53.622Z,17.10
2017-08-04T02:39:21.142Z,17.10
2017-08-04T02:41:49.476Z,17.10
2017-08-04T02:44:17.017Z,17.10
2017-08-04T02:46:44.539Z,17.00
2017-08-04T02:49:12.864Z,17.00
2017-08-04T02:51:40.401Z,17.00
2017-08-04T02:54:07.959Z,17.00
2017-08-04T02:56:35.519Z,17.00
2017-08-04T02:59:03.079Z,16.90
2017-08-04T03:01:30.621Z,16.90
2017-08-04T03:03:58.170Z,17.00
2017-08-04T03:06:26.469Z,17.00
2017-08-04T03:08:54.019Z,17.00
2017-08-04T03:11:21.576Z,17.00
2017-08-04T03:13:49.104Z,17.00
2017-08-04T03:16:16.637Z,17.10
2017-08-04T03:18:44.211Z,17.20
2017-08-04T03:21:11.749Z,17.20
2017-08-04T03:23:39.285Z,17.20
2017-08-04T03:26:06.922Z,17.20
2017-08-04T03:28:35.217Z,17.20
2017-08-04T03:31:02.759Z,17.20
2017-08-04T03:33:31.069Z,17.40
2017-08-04T03:35:58.590Z,17.40
2017-08-04T03:38:27.010Z,17.40
2017-08-04T03:40:54.572Z,17.40
2017-08-04T03:43:22.109Z,17.40
2017-08-04T03:45:49.660Z,17.30
2017-08-04T03:48:17.207Z,17.30
2017-08-04T03:50:45.522Z,17.30
2017-08-04T03:53:13.078Z,17.30
2017-08-04T03:55:40.613Z,17.30
2017-08-04T03:58:08.164Z,17.30
2017-08-04T04:00:36.474Z,17.30
2017-08-04T04:03:04.031Z,17.20
2017-08-04T04:05:31.575Z,17.20
2017-08-04T04:07:59.138Z,17.20
2017-08-04T04:10:26.669Z,17.20
2017-08-04T04:12:54.965Z,17.20
2017-08-04T04:15:22.956Z,17.20
2017-08-04T04:17:50.492Z,17.10
2017-08-04T04:20:18.018Z,17.10
2017-08-04T04:22:45.591Z,17.20
2017-08-04T04:25:13.893Z,17.20
2017-08-04T04:27:41.468Z,17.10
2017-08-04T04:30:09.308Z,17.20
2017-08-04T04:32:36.838Z,17.20
2017-08-04T04:35:04.355Z,17.20
2017-08-04T04:37:31.908Z,17.30
2017-08-04T04:39:59.435Z,17.30
2017-08-04T04:42:26.991Z,17.40
2017-08-04T04:44:55.334Z,17.40
2017-08-04T04:47:22.862Z,17.40
2017-08-04T04:49:50.408Z,17.50
2017-08-04T04:52:17.959Z,17.50
2017-08-04T04:54:45.496Z,17.50
2017-08-04T04:57:13.801Z,17.60
2017-08-04T04:59:41.379Z,17.60
2017-08-04T05:02:08.917Z,17.70
2017-08-04T05:04:36.496Z,17.80
2017-08-04T05:07:04.071Z,17.80
2017-08-04T05:09:31.719Z,17.80
2017-08-04T05:11:59.256Z,17.90
2017-08-04T05:14:26.817Z,18.00
2017-08-04T05:16:54.357Z,18.00
2017-08-04T05:19:22.774Z,18.20
2017-08-04T05:21:50.326Z,18.20
2017-08-04T05:24:17.866Z,18.30
2017-08-04T05:26:45.387Z,18.30
2017-08-04T05:29:12.947Z,18.40
2017-08-04T05:31:40.477Z,18.40
2017-08-04T05:34:08.028Z,18.40
2017-08-04T05:36:35.552Z,18.40
2017-08-04T05:39:03.853Z,18.40
2017-08-04T05:41:31.399Z,18.40
2017-08-04T05:43:58.928Z,18.40
2017-08-04T05:46:26.475Z,18.40
2017-08-04T05:48:54.018Z,18.50
2017-08-04T05:51:21.656Z,18.40
2017-08-04T05:53:49.193Z,18.50
2017-08-04T05:56:16.753Z,18.50
2017-08-04T05:58:44.304Z,18.50
2017-08-04T06:01:11.859Z,18.60
2017-08-04T06:03:40.271Z,18.70
2017-08-04T06:06:07.809Z,18.70
2017-08-04T06:08:35.371Z,18.70
2017-08-04T06:11:02.914Z,18.80
2017-08-04T06:13:31.213Z,18.90
2017-08-04T06:15:58.732Z,18.90
2017-08-04T06:18:26.270Z,18.90
2017-08-04T06:20:53.815Z,18.90
2017-08-04T06:23:21.368Z,19.00
2017-08-04T06:25:48.939Z,19.10
2017-08-04T06:28:16.473Z,19.10
2017-08-04T06:30:43.991Z,19.10
2017-08-04T06:33:12.304Z,19.30
2017-08-04T06:35:39.822Z,19.30
2017-08-04T06:38:07.377Z,19.30
2017-08-04T06:40:34.909Z,19.40
2017-08-04T06:43:02.436Z,19.40
2017-08-04T06:45:29.984Z,19.40
2017-08-04T06:47:57.516Z,19.50
2017-08-04T06:50:37.921Z,19.50
2017-08-04T06:53:26.077Z,19.50
2017-08-04T06:56:04.690Z,19.50
2017-08-04T06:58:32.221Z,19.50
2017-08-04T07:00:59.761Z,19.60
2017-08-04T07:03:28.184Z,19.80
2017-08-04T07:05:55.708Z,19.80
2017-08-04T07:08:24.004Z,19.90
2017-08-04T07:10:51.561Z,19.90
2017-08-04T07:13:19.093Z,19.80
2017-08-04T07:15:47.374Z,19.70
2017-08-04T07:18:15.708Z,19.80
2017-08-04T07:20:43.241Z,19.80
2017-08-04T07:23:10.766Z,19.80
2017-08-04T07:25:39.084Z,19.90
2017-08-04T07:28:06.613Z,19.80
2017-08-04T07:30:34.183Z,19.80
2017-08-04T07:33:01.703Z,19.90
2017-08-04T07:35:29.238Z,20.00
2017-08-04T07:37:56.800Z,20.10
2017-08-04T07:40:24.344Z,19.90
2017-08-04T07:42:51.891Z,20.00
2017-08-04T07:45:19.445Z,20.10
2017-08-04T07:47:46.980Z,20.50
2017-08-04T07:50:15.290Z,20.70
2017-08-04T07:52:42.850Z,20.70
2017-08-04T07:55:10.409Z,20.90
2017-08-04T07:57:37.965Z,20.80
2017-08-04T08:00:05.535Z,20.80
2017-08-04T08:02:33.065Z,21.00
2017-08-04T08:05:00.644Z,21.10
2017-08-04T08:07:28.191Z,21.30
2017-08-04T08:09:55.761Z,21.20
2017-08-04T08:12:23.337Z,21.20
2017-08-04T08:14:50.880Z,21.30
2017-08-04T08:17:18.395Z,21.30
2017-08-04T08:19:46.716Z,21.30
2017-08-04T08:22:14.276Z,21.30
2017-08-04T08:24:41.819Z,21.40
2017-08-04T08:27:09.394Z,21.40
2017-08-04T08:29:36.925Z,21.30
2017-08-04T08:32:04.442Z,21.30
2017-08-04T08:34:31.996Z,21.10
2017-08-04T08:36:59.542Z,21.00
2017-08-04T08:39:27.086Z,21.00
2017-08-04T08:41:54.631Z,21.10
2017-08-04T08:44:22.206Z,21.50
2017-08-04T08:46:49.744Z,21.60
2017-08-04T08:49:17.327Z,21.90
2017-08-04T08:51:44.857Z,22.60
2017-08-04T08:54:12.389Z,23.00
2017-08-04T08:56:39.939Z,23.00
2017-08-04T08:59:07.482Z,23.30
2017-08-04T09:01:35.120Z,23.50
2017-08-04T09:04:02.684Z,23.40
2017-08-04T09:06:30.212Z,23.60
2017-08-04T09:08:57.750Z,23.60
2017-08-04T09:11:26.059Z,23.60
2017-08-04T09:13:53.633Z,23.60
2017-08-04T09:16:21.164Z,24.00
2017-08-04T09:18:48.699Z,24.60
2017-08-04T09:21:16.242Z,25.30
2017-08-04T09:23:43.796Z,25.60
2017-08-04T09:26:11.311Z,25.60
2017-08-04T09:28:38.853Z,25.60
2017-08-04T09:31:07.166Z,26.10
2017-08-04T09:33:34.682Z,26.10
2017-08-04T09:36:02.997Z,25.90
2017-08-04T09:38:30.566Z,25.90
2017-08-04T09:40:58.089Z,25.80
2017-08-04T09:43:25.621Z,25.30
2017-08-04T09:45:53.187Z,25.70
2017-08-04T09:48:21.470Z,25.80
2017-08-04T09:50:49.812Z,26.00
2017-08-04T09:53:17.345Z,26.00
2017-08-04T09:55:44.877Z,26.80
2017-08-04T09:58:12.414Z,26.30
2017-08-04T10:00:40.708Z,25.80
2017-08-04T10:03:09.033Z,26.20
2017-08-04T10:05:36.573Z,26.20
2017-08-04T10:08:04.100Z,27.00
2017-08-04T10:10:32.511Z,27.80
2017-08-04T10:13:00.056Z,27.80
2017-08-04T10:15:27.614Z,27.40
2017-08-04T10:17:55.168Z,27.70
2017-08-04T10:20:22.701Z,27.60
2017-08-04T10:22:51.026Z,27.60
2017-08-04T10:25:18.576Z,27.60
2017-08-04T10:27:46.123Z,28.70
2017-08-04T10:30:13.657Z,29.00
2017-08-04T10:32:41.984Z,29.00
2017-08-04T10:35:09.517Z,29.00
2017-08-04T10:37:37.049Z,28.60
2017-08-04T10:40:05.369Z,28.30
2017-08-04T10:42:32.915Z,28.30
2017-08-04T10:45:00.444Z,28.80
2017-08-04T10:47:28.869Z,28.50
2017-08-04T10:49:56.401Z,28.40
2017-08-04T10:52:23.953Z,28.00
2017-08-04T10:54:52.264Z,27.40
2017-08-04T10:57:19.810Z,27.40
2017-08-04T10:59:47.381Z,26.60
2017-08-04T11:02:14.921Z,26.40
2017-08-04T11:04:42.468Z,26.10
2017-08-04T11:07:10.015Z,25.50
2017-08-04T11:09:38.315Z,25.20
2017-08-04T11:12:05.852Z,25.20
2017-08-04T11:14:34.169Z,24.40
2017-08-04T11:17:01.698Z,24.40
2017-08-04T11:19:30.007Z,24.70
2017-08-04T11:21:57.553Z,24.60
2017-08-04T11:24:25.075Z,25.20
2017-08-04T11:26:52.605Z,24.90
2017-08-04T11:29:20.183Z,24.80
2017-08-04T11:31:47.730Z,24.80
2017-08-04T11:34:15.292Z,25.10
2017-08-04T11:36:42.849Z,25.30
2017-08-04T11:39:10.374Z,25.50
2017-08-04T11:41:37.913Z,25.20
2017-08-04T11:44:05.483Z,25.10
2017-08-04T11:46:33.037Z,24.60
2017-08-04T11:49:00.585Z,24.60
2017-08-04T11:51:28.147Z,24.20
2017-08-04T11:53:55.673Z,24.00
2017-08-04T11:56:24.007Z,23.80
2017-08-04T11:58:51.522Z,23.80
2017-08-04T12:01:19.106Z,24.00
2017-08-04T12:03:46.646Z,24.20
2017-08-04T12:06:14.166Z,24.10
2017-08-04T12:08:41.723Z,24.00
2017-08-04T12:11:09.350Z,23.90
2017-08-04T12:13:36.885Z,24.00
2017-08-04T12:16:04.431Z,24.00
2017-08-04T12:18:32.003Z,24.70
2017-08-04T12:20:59.555Z,25.20
2017-08-04T12:23:27.074Z,26.20
2017-08-04T12:25:54.621Z,26.30
2017-08-04T12:28:22.261Z,26.40
2017-08-04T12:30:49.803Z,25.80
2017-08-04T12:33:17.351Z,25.30
2017-08-04T12:35:44.884Z,25.60
2017-08-04T12:38:12.444Z,25.70
2017-08-04T12:40:39.991Z,25.20
2017-08-04T12:43:07.535Z,25.30
2017-08-04T12:45:35.241Z,25.20
2017-08-04T12:48:03.537Z,25.50
2017-08-04T12:50:31.124Z,25.50
2017-08-04T12:52:58.656Z,28.30
2017-08-04T12:55:26.202Z,28.90
2017-08-04T12:57:53.753Z,29.00
2017-08-04T13:00:22.053Z,27.70
2017-08-04T13:02:49.612Z,27.60
2017-08-04T13:05:17.140Z,27.30
2017-08-04T13:07:45.436Z,27.30
2017-08-04T13:10:13.122Z,27.30
2017-08-04T13:12:40.652Z,27.10
2017-08-04T13:15:08.199Z,26.90
2017-08-04T13:17:36.617Z,26.60
2017-08-04T13:20:04.148Z,26.60
2017-08-04T13:22:32.441Z,25.90
2017-08-04T13:25:00.007Z,25.90
2017-08-04T13:27:27.536Z,25.90
2017-08-04T13:29:55.822Z,26.50
2017-08-04T13:32:23.381Z,26.50
2017-08-04T13:34:50.926Z,26.40
2017-08-04T13:37:19.235Z,25.80
2017-08-04T13:39:46.792Z,25.80
2017-08-04T13:42:14.314Z,25.60
2017-08-04T13:44:42.617Z,25.80
2017-08-04T13:47:10.176Z,25.70
2017-08-04T13:49:37.756Z,25.70
2017-08-04T13:52:05.307Z,25.30
2017-08-04T13:54:32.873Z,25.50
2017-08-04T13:57:00.413Z,25.20
2017-08-04T13:59:27.930Z,24.80
2017-08-04T14:01:55.489Z,24.50
2017-08-04T14:04:23.025Z,24.10
2017-08-04T14:06:50.546Z,25.50
2017-08-04T14:09:18.082Z,28.50
2017-08-04T14:11:46.388Z,27.80
2017-08-04T14:14:13.930Z,27.70
2017-08-04T14:16:42.214Z,31.10
2017-08-04T14:19:09.796Z,31.10
2017-08-04T14:21:37.349Z,32.80
2017-08-04T14:24:04.913Z,29.80
2017-08-04T14:26:32.475Z,27.40
2017-08-04T14:29:00.019Z,26.30
2017-08-04T14:31:27.549Z,25.60
2017-08-04T14:33:55.972Z,25.10
2017-08-04T14:36:23.504Z,25.10
2017-08-04T14:38:51.056Z,26.60
2017-08-04T14:41:19.399Z,28.30
2017-08-04T14:43:46.932Z,28.20
2017-08-04T14:46:14.479Z,30.30
2017-08-04T14:48:42.147Z,31.30
2017-08-04T14:51:09.685Z,28.90
2017-08-04T14:53:37.221Z,28.20
2017-08-04T14:56:05.538Z,27.00
2017-08-04T14:58:33.072Z,27.00
2017-08-04T15:01:00.656Z,26.20
2017-08-04T15:03:29.051Z,25.90
2017-08-04T15:05:56.679Z,26.30
2017-08-04T15:08:24.201Z,25.70
2017-08-04T15:10:51.757Z,25.70
2017-08-04T15:13:19.307Z,25.90
2017-08-04T15:15:46.841Z,25.70
2017-08-04T15:18:14.382Z,25.80
2017-08-04T15:20:41.914Z,25.60
2017-08-04T15:23:10.207Z,24.80
2017-08-04T15:25:37.765Z,24.80
2017-08-04T15:28:05.305Z,24.60
2017-08-04T15:30:33.625Z,24.00
2017-08-04T15:33:01.194Z,24.00
2017-08-04T15:35:28.845Z,24.20
2017-08-04T15:37:56.400Z,24.20
2017-08-04T15:40:23.979Z,23.90
2017-08-04T15:42:51.531Z,23.80
2017-08-04T15:45:19.065Z,23.80
2017-08-04T15:47:46.735Z,23.90
2017-08-04T15:50:14.264Z,23.90
2017-08-04T15:52:42.561Z,24.00
2017-08-04T15:55:10.137Z,24.00
2017-08-04T15:57:37.683Z,24.20
2017-08-04T16:00:05.221Z,24.20
2017-08-04T16:02:32.799Z,24.10
2017-08-04T16:05:00.322Z,23.90
2017-08-04T16:07:28.735Z,23.80
2017-08-04T16:09:56.264Z,23.80
2017-08-04T16:12:23.793Z,23.90
2017-08-04T16:14:51.342Z,23.70
2017-08-04T16:17:18.891Z,23.60
2017-08-04T16:19:46.533Z,23.30
2017-08-04T16:22:14.113Z,23.00
2017-08-04T16:24:41.754Z,22.90
2017-08-04T16:27:09.302Z,22.90
2017-08-04T16:29:36.864Z,23.10
2017-08-04T16:32:04.399Z,23.10
2017-08-04T16:34:32.678Z,23.30
2017-08-04T16:37:00.265Z,23.30
2017-08-04T16:39:27.797Z,23.30
2017-08-04T16:41:55.357Z,23.30
2017-08-04T16:44:22.927Z,23.30
2017-08-04T16:46:50.446Z,23.20
2017-08-04T16:49:18.063Z,23.20
2017-08-04T16:51:45.639Z,23.10
2017-08-04T16:54:13.191Z,23.10
2017-08-04T16:56:40.733Z,23.10
2017-08-04T16:59:08.293Z,23.00
2017-08-04T17:01:35.820Z,22.90
2017-08-04T17:04:04.106Z,22.80
2017-08-04T17:06:31.670Z,22.80
2017-08-04T17:08:59.201Z,22.70
2017-08-04T17:11:27.501Z,22.80
2017-08-04T17:13:55.043Z,22.70
2017-08-04T17:16:23.355Z,22.80
2017-08-04T17:18:50.884Z,22.80
2017-08-04T17:21:19.204Z,22.90
2017-08-04T17:23:46.751Z,22.80
2017-08-04T17:26:14.281Z,22.70
2017-08-04T17:28:41.860Z,22.60
2017-08-04T17:31:09.425Z,22.50
2017-08-04T17:33:36.979Z,22.30
2017-08-04T17:36:04.541Z,22.10
2017-08-04T17:38:32.068Z,21.90
2017-08-04T17:41:00.350Z,21.70
2017-08-04T17:43:28.004Z,21.70
2017-08-04T17:45:55.522Z,21.60
2017-08-04T17:48:23.822Z,21.50
2017-08-04T17:50:51.385Z,21.50
2017-08-04T17:53:18.903Z,21.40
2017-08-04T17:55:46.419Z,21.30
2017-08-04T17:58:25.740Z,21.30
2017-08-04T18:00:53.287Z,21.30
2017-08-04T18:03:20.820Z,21.20
2017-08-04T18:05:49.143Z,21.10
2017-08-04T18:08:16.674Z,21.10
2017-08-04T18:10:44.213Z,21.10
2017-08-04T18:13:12.635Z,21.00
2017-08-04T18:15:40.187Z,21.00
2017-08-04T18:18:07.735Z,20.90
2017-08-04T18:20:35.290Z,20.90
2017-08-04T18:23:02.816Z,20.90
2017-08-04T18:25:30.435Z,20.80
2017-08-04T18:27:57.990Z,20.70
2017-08-04T18:30:25.550Z,20.60
2017-08-04T18:32:53.066Z,20.60
2017-08-04T18:35:21.385Z,20.40
2017-08-04T18:37:48.909Z,20.40
2017-08-04T18:40:17.204Z,20.30
2017-08-04T18:42:44.747Z,20.30
2017-08-04T18:45:12.263Z,20.30
2017-08-04T18:47:39.800Z,20.30
2017-08-04T18:50:07.368Z,20.20
2017-08-04T18:52:35.684Z,20.10
2017-08-04T18:55:03.250Z,20.10
2017-08-04T18:57:30.813Z,20.10
2017-08-04T18:59:58.322Z,20.10
2017-08-04T19:02:26.645Z,20.10
2017-08-04T19:04:54.188Z,20.10
2017-08-04T19:07:21.721Z,20.10
2017-08-04T19:09:50.136Z,20.00
2017-08-04T19:12:17.683Z,20.00
2017-08-04T19:14:45.259Z,19.90
2017-08-04T19:17:12.835Z,19.80
2017-08-04T19:19:40.430Z,19.80
2017-08-04T19:22:08.725Z,19.70
2017-08-04T19:24:36.271Z,19.70
2017-08-04T19:27:04.585Z,19.60
2017-08-04T19:29:32.133Z,19.60
2017-08-04T19:31:59.689Z,19.60
2017-08-04T19:34:27.231Z,19.50
2017-08-04T19:36:55.547Z,19.40
2017-08-04T19:39:23.202Z,19.40
2017-08-04T19:41:50.740Z,19.30
2017-08-04T19:44:18.302Z,19.30
2017-08-04T19:46:45.861Z,19.20
2017-08-04T19:49:13.386Z,19.10
2017-08-04T19:51:40.998Z,19.00
2017-08-04T19:54:08.537Z,19.00
2017-08-04T19:56:36.219Z,18.90
2017-08-04T19:59:03.791Z,18.90
2017-08-04T20:01:31.329Z,18.70
2017-08-04T20:03:58.875Z,18.70
2017-08-04T20:06:26.446Z,18.70
2017-08-04T20:08:53.988Z,18.70
2017-08-04T20:11:21.510Z,18.70
2017-08-04T20:13:49.135Z,18.70
2017-08-04T20:16:16.655Z,18.60
2017-08-04T20:18:44.966Z,18.50
2017-08-04T20:21:12.501Z,18.50
2017-08-04T20:23:40.050Z,18.40
2017-08-04T20:26:08.376Z,18.20
2017-08-04T20:28:35.902Z,18.20
2017-08-04T20:31:03.451Z,18.10
2017-08-04T20:33:31.041Z,18.00
2017-08-04T20:35:58.558Z,17.90
2017-08-04T20:38:26.851Z,17.80
2017-08-04T20:40:54.421Z,17.70
2017-08-04T20:43:21.952Z,17.70
2017-08-04T20:45:50.252Z,17.60
2017-08-04T20:48:17.803Z,17.60
2017-08-04T20:50:45.340Z,17.60
2017-08-04T20:53:13.656Z,17.50
2017-08-04T20:55:41.192Z,17.50
2017-08-04T20:58:09.605Z,17.50
2017-08-04T21:00:37.176Z,17.40
2017-08-04T21:03:04.695Z,17.50
2017-08-04T21:05:32.243Z,17.40
2017-08-04T21:08:00.660Z,17.30
2017-08-04T21:10:28.182Z,17.30
2017-08-04T21:12:56.477Z,17.10
2017-08-04T21:15:24.036Z,17.10
2017-08-04T21:17:51.569Z,17.00
2017-08-04T21:20:19.872Z,16.90
2017-08-04T21:22:47.437Z,16.80
2017-08-04T21:25:14.968Z,16.80
2017-08-04T21:27:43.286Z,16.60
2017-08-04T21:30:11.680Z,16.50
2017-08-04T21:32:39.194Z,16.50
2017-08-04T21:35:06.752Z,16.40
2017-08-04T21:37:34.299Z,16.30
2017-08-04T21:40:02.606Z,16.30
2017-08-04T21:42:30.179Z,16.20
2017-08-04T21:44:57.712Z,16.20
2017-08-04T21:47:25.293Z,16.20
2017-08-04T21:49:52.852Z,16.20
2017-08-04T21:52:20.370Z,16.10
2017-08-04T21:54:48.678Z,16.20
2017-08-04T21:57:16.244Z,16.10
2017-08-04T21:59:43.778Z,16.20
2017-08-04T22:02:11.323Z,16.20
2017-08-04T22:04:39.655Z,16.20
2017-08-04T22:07:07.188Z,16.10
2017-08-04T22:09:34.761Z,16.20
2017-08-04T22:12:02.301Z,16.20
2017-08-04T22:14:29.840Z,16.20
2017-08-04T22:16:58.151Z,16.20
2017-08-04T22:19:25.730Z,16.20
2017-08-04T22:21:53.273Z,16.20
2017-08-04T22:24:20.847Z,16.20
2017-08-04T22:26:48.384Z,16.10
2017-08-04T22:29:15.916Z,16.00
2017-08-04T22:31:43.477Z,16.00
2017-08-04T22:34:11.794Z,15.80
2017-08-04T22:36:39.325Z,15.70
2017-08-04T22:39:06.882Z,15.70
2017-08-04T22:41:34.413Z,15.50
2017-08-04T22:44:02.738Z,15.40
2017-08-04T22:46:30.293Z,15.40
2017-08-04T22:48:57.833Z,15.30
2017-08-04T22:51:25.383Z,15.30
2017-08-04T22:53:53.705Z,15.20
2017-08-04T22:56:21.233Z,15.20
2017-08-04T22:58:48.754Z,15.10
2017-08-04T23:01:16.338Z,15.20
2017-08-04T23:03:43.873Z,15.20
2017-08-04T23:06:11.437Z,15.10
2017-08-04T23:08:38.953Z,15.10
2017-08-04T23:11:06.485Z,15.10
2017-08-04T23:13:34.030Z,15.10
2017-08-04T23:16:02.314Z,15.20
2017-08-04T23:18:29.861Z,15.20
2017-08-04T23:20:58.172Z,15.30
2017-08-04T23:23:25.712Z,15.30
2017-08-04T23:25:53.255Z,15.40
2017-08-04T23:28:21.563Z,15.40
2017-08-04T23:30:49.132Z,15.30
2017-08-04T23:33:16.679Z,15.30
2017-08-04T23:35:44.223Z,15.30
2017-08-04T23:38:11.747Z,15.30
2017-08-04T23:40:39.292Z,15.30
2017-08-04T23:43:06.857Z,15.40
2017-08-04T23:45:34.403Z,15.50
2017-08-04T23:48:01.926Z,15.50
2017-08-04T23:50:29.489Z,15.60
2017-08-04T23:52:57.143Z,15.60
2017-08-04T23:55:24.662Z,15.60
2017-08-04T23:57:52.214Z,15.70
